CYOJ

High Level Airport

High Level, Alberta, Canada

CYOJ 110900Z AUTO 15004KT 9SM CLR M01/M04 A3018 RMK SLP240

Observed Flight Rules
Dec-11 @ 09:00 UTC (24 minutes ago) Visual Flight Rules
Wind Visibility Clouds
150° at 4 knots 9 miles
  • Clear skies
Temperatures Readings
Current -1°C / 30°F
Dewpoint -4°C / 25°F
Humidity 80%
Altimeter 30.18" Hg
Pressure 1024 hPa
Elevation 338
Observed Flight Rules
Dec-11 @ 09:00 UTC
(24 minutes ago)
VFR
Wind Visibility
150° at 4 knots 9 miles
Clouds
  • Clear skies
Temperature Dewpoint
-1°C / 30°F -4°C / 25°F
Humidity Altimeter Pressure
80% 30.18" Hg 1024 hPa